createdAt,value
2017-10-12T00:00:59.376Z,0
2017-10-12T00:02:11.929Z,0
2017-10-12T00:03:24.177Z,0
2017-10-12T00:04:36.438Z,0
2017-10-12T00:05:48.994Z,0
2017-10-12T00:07:01.241Z,0
2017-10-12T00:08:13.161Z,0
2017-10-12T00:09:25.410Z,0
2017-10-12T00:10:37.649Z,0
2017-10-12T00:11:49.894Z,0
2017-10-12T00:13:02.470Z,0
2017-10-12T00:14:14.728Z,0
2017-10-12T00:15:26.974Z,0
2017-10-12T00:16:39.253Z,0
2017-10-12T00:17:51.826Z,0
2017-10-12T00:19:04.086Z,0
2017-10-12T00:20:16.665Z,0
2017-10-12T00:21:29.238Z,0
2017-10-12T00:22:41.801Z,0
2017-10-12T00:23:54.368Z,0
2017-10-12T00:25:06.920Z,0
2017-10-12T00:26:19.485Z,0
2017-10-12T00:27:32.031Z,0
2017-10-12T00:28:44.621Z,0
2017-10-12T00:29:56.571Z,0
2017-10-12T00:31:08.817Z,0
2017-10-12T00:32:21.377Z,0
2017-10-12T00:33:34.196Z,0
2017-10-12T00:34:46.765Z,0
2017-10-12T00:35:59.026Z,0
2017-10-12T00:37:11.595Z,0
2017-10-12T00:38:23.828Z,0
2017-10-12T00:39:36.090Z,0
2017-10-12T00:40:48.346Z,0
2017-10-12T00:42:00.913Z,0
2017-10-12T00:43:13.155Z,0
2017-10-12T00:44:25.652Z,0
2017-10-12T00:45:37.923Z,0
2017-10-12T00:46:50.497Z,0
2017-10-12T00:48:02.422Z,0
2017-10-12T00:49:14.989Z,0
2017-10-12T00:50:27.247Z,0
2017-10-12T00:51:39.502Z,0
2017-10-12T00:52:52.089Z,0
2017-10-12T00:54:04.334Z,0
2017-10-12T00:55:16.905Z,0
2017-10-12T00:56:29.467Z,0
2017-10-12T00:57:41.732Z,0
2017-10-12T00:58:53.992Z,0
2017-10-12T01:00:06.551Z,0
2017-10-12T01:01:18.816Z,0
2017-10-12T01:02:31.361Z,0
2017-10-12T01:03:43.947Z,0
2017-10-12T01:04:56.519Z,0
2017-10-12T01:06:08.441Z,0
2017-10-12T01:07:20.686Z,0
2017-10-12T01:08:33.258Z,0
2017-10-12T01:09:45.527Z,0
2017-10-12T01:10:58.085Z,0
2017-10-12T01:12:10.329Z,0
2017-10-12T01:13:22.898Z,0
2017-10-12T01:14:35.472Z,0
2017-10-12T01:15:47.731Z,0
2017-10-12T01:17:00.602Z,0
2017-10-12T01:18:12.533Z,0
2017-10-12T01:19:24.778Z,0
2017-10-12T01:20:37.038Z,0
2017-10-12T01:21:49.594Z,0
2017-10-12T01:23:02.167Z,0
2017-10-12T01:24:14.738Z,0
2017-10-12T01:25:27.306Z,0
2017-10-12T01:26:39.552Z,0
2017-10-12T01:27:51.795Z,0
2017-10-12T01:29:04.368Z,0
2017-10-12T01:30:16.955Z,0
2017-10-12T01:31:29.199Z,0
2017-10-12T01:32:40.803Z,0
2017-10-12T01:33:53.377Z,0
2017-10-12T01:35:05.948Z,0
2017-10-12T01:36:18.194Z,0
2017-10-12T01:37:30.460Z,0
2017-10-12T01:38:42.382Z,0
2017-10-12T01:39:54.654Z,0
2017-10-12T01:41:06.589Z,0
2017-10-12T01:42:19.144Z,0
2017-10-12T01:43:31.406Z,0
2017-10-12T01:44:43.976Z,0
2017-10-12T01:45:56.209Z,0
2017-10-12T01:47:08.467Z,0
2017-10-12T01:48:20.419Z,0
2017-10-12T01:49:32.984Z,0
2017-10-12T01:50:45.555Z,0
2017-10-12T01:51:57.804Z,0
2017-10-12T01:53:10.031Z,0
2017-10-12T01:54:21.974Z,0
2017-10-12T01:55:34.547Z,0
2017-10-12T01:56:46.807Z,0
2017-10-12T01:57:59.361Z,0
2017-10-12T01:59:11.599Z,0
2017-10-12T02:00:24.403Z,0
2017-10-12T02:01:36.973Z,0
2017-10-12T02:02:49.545Z,0
2017-10-12T02:04:02.132Z,0
2017-10-12T02:05:14.702Z,0
2017-10-12T02:06:27.261Z,0
2017-10-12T02:07:39.828Z,0
2017-10-12T02:08:52.395Z,0
2017-10-12T02:10:04.622Z,0
2017-10-12T02:11:17.191Z,0
2017-10-12T02:12:29.460Z,0
2017-10-12T02:13:41.710Z,0
2017-10-12T02:14:54.279Z,0
2017-10-12T02:16:06.522Z,0
2017-10-12T02:17:19.115Z,0
2017-10-12T02:18:31.340Z,0
2017-10-12T02:19:43.261Z,0
2017-10-12T02:20:55.503Z,0
2017-10-12T02:22:07.766Z,0
2017-10-12T02:23:20.323Z,0
2017-10-12T02:24:32.892Z,0
2017-10-12T02:25:44.828Z,0
2017-10-12T02:26:57.074Z,0
2017-10-12T02:28:09.656Z,0
2017-10-12T02:29:22.246Z,0
2017-10-12T02:30:34.172Z,0
2017-10-12T02:31:46.105Z,0
2017-10-12T02:32:58.976Z,0
2017-10-12T02:34:11.529Z,0
2017-10-12T02:35:24.118Z,0
2017-10-12T02:36:36.349Z,0
2017-10-12T02:37:48.610Z,0
2017-10-12T02:39:01.180Z,0
2017-10-12T02:40:13.433Z,0
2017-10-12T02:41:26.021Z,0
2017-10-12T02:42:38.268Z,0
2017-10-12T02:43:51.564Z,0
2017-10-12T02:45:04.140Z,0
2017-10-12T02:46:16.387Z,0
2017-10-12T02:47:28.636Z,0
2017-10-12T02:48:41.203Z,0
2017-10-12T02:49:53.774Z,0
2017-10-12T02:51:05.712Z,0
2017-10-12T02:52:18.294Z,0
2017-10-12T02:53:30.865Z,0
2017-10-12T02:54:42.476Z,0
2017-10-12T02:55:55.069Z,0
2017-10-12T02:57:07.323Z,0
2017-10-12T02:58:19.895Z,0
2017-10-12T02:59:32.466Z,0
2017-10-12T03:00:45.036Z,0
2017-10-12T03:01:57.304Z,0
2017-10-12T03:03:09.543Z,0
2017-10-12T03:04:22.097Z,0
2017-10-12T03:05:34.335Z,0
2017-10-12T03:06:46.888Z,0
2017-10-12T03:07:59.450Z,0
2017-10-12T03:09:12.005Z,0
2017-10-12T03:10:23.603Z,0
2017-10-12T03:11:35.220Z,0
2017-10-12T03:12:47.768Z,0
2017-10-12T03:14:00.328Z,0
2017-10-12T03:15:12.885Z,0
2017-10-12T03:16:24.804Z,0
2017-10-12T03:17:36.748Z,0
2017-10-12T03:18:48.361Z,0
2017-10-12T03:20:00.590Z,0
2017-10-12T03:21:12.852Z,0
2017-10-12T03:22:25.110Z,0
2017-10-12T03:23:36.744Z,0
2017-10-12T03:24:49.314Z,0
2017-10-12T03:26:01.570Z,0
2017-10-12T03:27:13.805Z,0
2017-10-12T03:28:26.359Z,0
2017-10-12T03:29:38.947Z,0
2017-10-12T03:30:51.194Z,0
2017-10-12T03:32:03.748Z,0
2017-10-12T03:33:16.320Z,0
2017-10-12T03:34:28.255Z,0
2017-10-12T03:35:40.180Z,0
2017-10-12T03:36:52.779Z,0
2017-10-12T03:38:05.656Z,0
2017-10-12T03:39:18.213Z,0
2017-10-12T03:40:30.791Z,0
2017-10-12T03:41:43.053Z,0
2017-10-12T03:42:55.609Z,0
2017-10-12T03:44:07.870Z,0
2017-10-12T03:45:19.815Z,0
2017-10-12T03:46:32.371Z,0
2017-10-12T03:47:44.615Z,0
2017-10-12T03:48:57.130Z,0
2017-10-12T03:50:09.373Z,0
2017-10-12T03:51:21.930Z,0
2017-10-12T03:52:34.174Z,0
2017-10-12T03:53:46.742Z,0
2017-10-12T03:54:59.006Z,0
2017-10-12T03:56:11.262Z,0
2017-10-12T03:57:23.197Z,0
2017-10-12T03:58:35.449Z,0
2017-10-12T03:59:48.002Z,0
2017-10-12T04:01:00.258Z,0
2017-10-12T04:02:12.513Z,0
2017-10-12T04:03:25.101Z,0
2017-10-12T04:04:37.345Z,0
2017-10-12T04:05:49.901Z,0
2017-10-12T04:07:02.173Z,0
2017-10-12T04:08:14.742Z,0
2017-10-12T04:09:26.335Z,0
2017-10-12T04:10:38.825Z,0
2017-10-12T04:11:51.054Z,0
2017-10-12T04:13:02.966Z,0
2017-10-12T04:14:15.520Z,0
2017-10-12T04:15:28.089Z,0
2017-10-12T04:16:40.013Z,0
2017-10-12T04:17:51.933Z,0
2017-10-12T04:19:04.506Z,0
2017-10-12T04:20:16.764Z,0
2017-10-12T04:21:29.245Z,0
2017-10-12T04:22:41.490Z,0
2017-10-12T04:23:53.429Z,0
2017-10-12T04:25:05.359Z,0
2017-10-12T04:26:16.975Z,0
2017-10-12T04:27:29.221Z,0
2017-10-12T04:28:41.817Z,0
2017-10-12T04:29:54.088Z,0
2017-10-12T04:31:06.351Z,0
2017-10-12T04:32:18.829Z,0
2017-10-12T04:33:31.415Z,0
2017-10-12T04:34:43.320Z,0
2017-10-12T04:35:55.282Z,0
2017-10-12T04:37:07.855Z,0
2017-10-12T04:38:20.111Z,0
2017-10-12T04:39:32.677Z,0
2017-10-12T04:40:44.949Z,0
2017-10-12T04:41:57.545Z,0
2017-10-12T04:43:10.369Z,0
2017-10-12T04:44:22.309Z,0
2017-10-12T04:45:34.576Z,0
2017-10-12T04:46:46.494Z,0
2017-10-12T04:47:58.739Z,0
2017-10-12T04:49:11.323Z,0
2017-10-12T04:50:23.565Z,0
2017-10-12T04:51:36.137Z,0
2017-10-12T04:52:48.721Z,0
2017-10-12T04:54:01.302Z,0
2017-10-12T04:55:13.875Z,0
2017-10-12T04:56:26.442Z,0
2017-10-12T04:57:38.704Z,0
2017-10-12T04:58:50.950Z,0
2017-10-12T05:00:03.502Z,0
2017-10-12T05:01:15.443Z,0
2017-10-12T05:02:28.020Z,0
2017-10-12T05:03:39.940Z,0
2017-10-12T05:04:52.790Z,0
2017-10-12T05:06:05.374Z,0
2017-10-12T05:07:16.977Z,0
2017-10-12T05:08:28.915Z,0
2017-10-12T05:09:41.469Z,0
2017-10-12T05:10:53.731Z,0
2017-10-12T05:12:06.303Z,0
2017-10-12T05:13:18.534Z,0
2017-10-12T05:14:30.779Z,0
2017-10-12T05:15:43.354Z,0
2017-10-12T05:16:55.919Z,0
2017-10-12T05:18:08.166Z,0
2017-10-12T05:19:20.101Z,0
2017-10-12T05:20:32.047Z,0
2017-10-12T05:21:43.329Z,0
2017-10-12T05:22:55.264Z,0
2017-10-12T05:24:07.818Z,0
2017-10-12T05:25:19.760Z,0
2017-10-12T05:26:32.559Z,0
2017-10-12T05:27:44.808Z,0
2017-10-12T05:28:57.367Z,0
2017-10-12T05:30:09.921Z,0
2017-10-12T05:31:22.164Z,5
2017-10-12T05:32:34.104Z,5
2017-10-12T05:33:45.724Z,5
2017-10-12T05:34:58.307Z,5
2017-10-12T05:36:10.877Z,5
2017-10-12T05:37:23.111Z,5
2017-10-12T05:38:35.365Z,5
2017-10-12T05:39:47.640Z,5
2017-10-12T05:40:59.887Z,10
2017-10-12T05:42:12.143Z,10
2017-10-12T05:43:24.073Z,15
2017-10-12T05:44:36.018Z,15
2017-10-12T05:45:48.605Z,20
2017-10-12T05:47:01.159Z,20
2017-10-12T05:48:13.997Z,20
2017-10-12T05:49:26.231Z,20
2017-10-12T05:50:38.799Z,25
2017-10-12T05:51:51.043Z,25
2017-10-12T05:53:03.290Z,30
2017-10-12T05:54:15.552Z,35
2017-10-12T05:55:28.106Z,50
2017-10-12T05:56:40.027Z,40
2017-10-12T05:57:51.946Z,35
2017-10-12T05:59:04.533Z,40
2017-10-12T06:00:17.088Z,35
2017-10-12T06:01:29.660Z,40
2017-10-12T06:02:40.952Z,45
2017-10-12T06:03:53.518Z,35
2017-10-12T06:05:06.086Z,35
2017-10-12T06:06:18.332Z,45
2017-10-12T06:07:30.603Z,45
2017-10-12T06:08:42.549Z,40
2017-10-12T06:09:54.802Z,60
2017-10-12T06:11:07.376Z,60
2017-10-12T06:12:19.619Z,60
2017-10-12T06:13:31.880Z,40
2017-10-12T06:14:44.126Z,45
2017-10-12T06:15:56.355Z,35
2017-10-12T06:17:08.626Z,50
2017-10-12T06:18:21.219Z,45
2017-10-12T06:19:33.470Z,35
2017-10-12T06:20:45.716Z,45
2017-10-12T06:21:58.286Z,50
2017-10-12T06:23:10.221Z,45
2017-10-12T06:24:22.775Z,50
2017-10-12T06:25:35.347Z,40
2017-10-12T06:26:47.608Z,35
2017-10-12T06:28:00.217Z,40
2017-10-12T06:29:12.786Z,60
2017-10-12T06:30:25.046Z,70
2017-10-12T06:31:37.275Z,75
2017-10-12T06:32:49.219Z,110
2017-10-12T06:34:01.142Z,130
2017-10-12T06:35:13.713Z,140
2017-10-12T06:36:25.957Z,160
2017-10-12T06:37:38.218Z,175
2017-10-12T06:38:50.809Z,170
2017-10-12T06:40:03.072Z,155
2017-10-12T06:41:15.331Z,155
2017-10-12T06:42:27.577Z,160
2017-10-12T06:43:40.131Z,155
2017-10-12T06:44:52.378Z,150
2017-10-12T06:46:04.638Z,135
2017-10-12T06:47:16.587Z,140
2017-10-12T06:48:28.839Z,135
2017-10-12T06:49:41.414Z,145
2017-10-12T06:50:53.655Z,160
2017-10-12T06:52:05.916Z,150
2017-10-12T06:53:18.472Z,130
2017-10-12T06:54:31.045Z,120
2017-10-12T06:55:43.292Z,145
2017-10-12T06:56:55.859Z,145
2017-10-12T06:58:07.795Z,140
2017-10-12T06:59:20.352Z,110
2017-10-12T07:00:32.610Z,105
2017-10-12T07:01:45.181Z,120
2017-10-12T07:02:57.426Z,140
2017-10-12T07:04:09.672Z,115
2017-10-12T07:05:21.268Z,120
2017-10-12T07:06:33.825Z,125
2017-10-12T07:07:46.395Z,125
2017-10-12T07:08:58.656Z,130
2017-10-12T07:10:10.585Z,120
2017-10-12T07:11:22.522Z,155
2017-10-12T07:12:35.074Z,190
2017-10-12T07:13:47.337Z,200
2017-10-12T07:14:59.584Z,165
2017-10-12T07:16:12.138Z,145
2017-10-12T07:17:24.086Z,140
2017-10-12T07:18:36.656Z,150
2017-10-12T07:19:49.229Z,135
2017-10-12T07:21:01.146Z,130
2017-10-12T07:22:13.393Z,185
2017-10-12T07:23:25.964Z,275
2017-10-12T07:24:37.883Z,255
2017-10-12T07:25:50.453Z,230
2017-10-12T07:27:03.025Z,280
2017-10-12T07:28:15.611Z,225
2017-10-12T07:29:28.168Z,185
2017-10-12T07:30:40.102Z,180
2017-10-12T07:31:52.659Z,140
2017-10-12T07:33:04.593Z,165
2017-10-12T07:34:16.847Z,280
2017-10-12T07:35:29.093Z,310
2017-10-12T07:36:41.341Z,220
2017-10-12T07:37:53.909Z,270
2017-10-12T07:39:06.486Z,305
2017-10-12T07:40:18.725Z,330
2017-10-12T07:41:31.001Z,315
2017-10-12T07:42:43.244Z,315
2017-10-12T07:43:55.164Z,280
2017-10-12T07:45:07.410Z,170
2017-10-12T07:46:19.982Z,130
2017-10-12T07:47:32.241Z,150
2017-10-12T07:48:44.497Z,145
2017-10-12T07:49:57.083Z,145
2017-10-12T07:51:09.341Z,170
2017-10-12T07:52:21.927Z,180
2017-10-12T07:53:34.494Z,310
2017-10-12T07:54:46.416Z,430
2017-10-12T07:55:58.694Z,420
2017-10-12T07:57:10.955Z,335
2017-10-12T07:58:23.135Z,370
2017-10-12T07:59:35.706Z,385
2017-10-12T08:00:48.280Z,300
2017-10-12T08:01:59.578Z,375
2017-10-12T08:03:12.145Z,280
2017-10-12T08:04:24.405Z,255
2017-10-12T08:05:36.976Z,290
2017-10-12T08:06:49.233Z,335
2017-10-12T08:08:01.494Z,290
2017-10-12T08:09:13.748Z,400
2017-10-12T08:10:26.321Z,370
2017-10-12T08:11:38.888Z,340
2017-10-12T08:12:51.150Z,345
2017-10-12T08:14:03.720Z,480
2017-10-12T08:15:15.976Z,445
2017-10-12T08:16:28.223Z,455
2017-10-12T08:17:40.487Z,475
2017-10-12T08:18:52.736Z,380
2017-10-12T08:20:04.999Z,300
2017-10-12T08:21:17.554Z,300
2017-10-12T08:22:30.124Z,280
2017-10-12T08:23:42.695Z,330
2017-10-12T08:24:55.280Z,335
2017-10-12T08:26:07.514Z,305
2017-10-12T08:27:19.760Z,360
2017-10-12T08:28:32.043Z,270
2017-10-12T08:29:44.621Z,300
2017-10-12T08:30:57.194Z,265
2017-10-12T08:32:09.455Z,255
2017-10-12T08:33:21.701Z,265
2017-10-12T08:34:33.955Z,265
2017-10-12T08:35:45.902Z,320
2017-10-12T08:36:58.471Z,375
2017-10-12T08:38:10.411Z,290
2017-10-12T08:39:22.688Z,265
2017-10-12T08:40:35.258Z,275
2017-10-12T08:41:46.871Z,310
2017-10-12T08:42:59.098Z,375
2017-10-12T08:44:11.345Z,395
2017-10-12T08:45:23.593Z,385
2017-10-12T08:46:36.164Z,390
2017-10-12T08:47:48.424Z,350
2017-10-12T08:49:00.657Z,365
2017-10-12T08:50:12.929Z,320
2017-10-12T08:51:24.885Z,445
2017-10-12T08:52:37.489Z,415
2017-10-12T08:53:50.059Z,440
2017-10-12T08:55:02.306Z,485
2017-10-12T08:56:14.879Z,400
2017-10-12T08:57:27.388Z,415
2017-10-12T08:58:39.641Z,420
2017-10-12T08:59:52.215Z,455
2017-10-12T09:01:04.459Z,325
2017-10-12T09:02:16.404Z,390
2017-10-12T09:03:28.328Z,570
2017-10-12T09:04:40.249Z,445
2017-10-12T09:05:52.532Z,420
2017-10-12T09:07:05.090Z,475
2017-10-12T09:08:17.686Z,425
2017-10-12T09:09:29.930Z,435
2017-10-12T09:10:42.174Z,570
2017-10-12T09:11:54.116Z,500
2017-10-12T09:13:06.693Z,395
2017-10-12T09:14:19.259Z,315
2017-10-12T09:15:31.509Z,310
2017-10-12T09:16:43.757Z,150
2017-10-12T09:17:56.324Z,205
2017-10-12T09:19:08.270Z,205
2017-10-12T09:20:20.533Z,470
2017-10-12T09:21:32.828Z,550
2017-10-12T09:22:45.072Z,460
2017-10-12T09:23:57.643Z,245
2017-10-12T09:25:10.197Z,255
2017-10-12T09:26:22.467Z,335
2017-10-12T09:27:35.040Z,400
2017-10-12T09:28:47.613Z,460
2017-10-12T09:29:59.857Z,555
2017-10-12T09:31:12.124Z,500
2017-10-12T09:32:24.387Z,515
2017-10-12T09:33:36.947Z,490
2017-10-12T09:34:49.554Z,520
2017-10-12T09:36:01.785Z,455
2017-10-12T09:37:13.720Z,505
2017-10-12T09:38:25.666Z,525
2017-10-12T09:39:37.912Z,420
2017-10-12T09:40:50.466Z,385
2017-10-12T09:42:02.727Z,325
2017-10-12T09:43:14.024Z,200
2017-10-12T09:44:26.604Z,140
2017-10-12T09:45:38.548Z,130
2017-10-12T09:46:50.835Z,135
2017-10-12T09:48:03.092Z,85
2017-10-12T09:49:15.335Z,45
2017-10-12T09:50:27.598Z,45
2017-10-12T09:51:39.852Z,45
2017-10-12T09:52:52.098Z,35
2017-10-12T09:54:04.671Z,40
2017-10-12T09:55:17.240Z,40
2017-10-12T09:56:28.851Z,45
2017-10-12T09:57:41.682Z,50
2017-10-12T09:58:53.942Z,70
2017-10-12T10:00:05.563Z,85
2017-10-12T10:01:17.520Z,65
2017-10-12T10:02:30.087Z,75
2017-10-12T10:03:42.024Z,90
2017-10-12T10:04:54.282Z,90
2017-10-12T10:06:06.541Z,125
2017-10-12T10:07:18.814Z,165
2017-10-12T10:08:31.382Z,175
2017-10-12T10:09:43.953Z,155
2017-10-12T10:10:56.198Z,160
2017-10-12T10:12:08.455Z,220
2017-10-12T10:13:21.025Z,300
2017-10-12T10:14:33.286Z,355
2017-10-12T10:15:45.841Z,320
2017-10-12T10:16:57.785Z,375
2017-10-12T10:18:10.356Z,405
2017-10-12T10:19:23.176Z,380
2017-10-12T10:20:35.750Z,320
2017-10-12T10:21:48.327Z,415
2017-10-12T10:23:00.567Z,525
2017-10-12T10:24:13.133Z,475
2017-10-12T10:25:25.446Z,420
2017-10-12T10:26:37.692Z,375
2017-10-12T10:27:49.920Z,360
2017-10-12T10:29:02.496Z,415
2017-10-12T10:30:15.103Z,460
2017-10-12T10:31:27.675Z,545
2017-10-12T10:32:39.905Z,565
2017-10-12T10:33:52.493Z,455
2017-10-12T10:35:04.422Z,475
2017-10-12T10:36:16.682Z,400
2017-10-12T10:37:29.261Z,350
2017-10-12T10:38:41.834Z,310
2017-10-12T10:39:54.094Z,300
2017-10-12T10:41:06.024Z,285
2017-10-12T10:42:18.300Z,285
2017-10-12T10:43:30.864Z,260
2017-10-12T10:44:43.451Z,300
2017-10-12T10:45:55.697Z,305
2017-10-12T10:47:07.926Z,295
2017-10-12T10:48:19.864Z,360
2017-10-12T10:49:31.784Z,455
2017-10-12T10:50:44.338Z,445
2017-10-12T10:51:56.265Z,400
2017-10-12T10:53:08.504Z,395
2017-10-12T10:54:21.117Z,405
2017-10-12T10:55:33.063Z,435
2017-10-12T10:56:45.319Z,470
2017-10-12T10:57:57.562Z,490
2017-10-12T10:59:10.138Z,490
2017-10-12T11:00:22.744Z,465
2017-10-12T11:01:35.026Z,445
2017-10-12T11:02:47.847Z,435
2017-10-12T11:03:59.791Z,385
2017-10-12T11:05:12.382Z,440
2017-10-12T11:06:24.973Z,480
2017-10-12T11:07:37.543Z,510
2017-10-12T11:08:50.115Z,545
2017-10-12T11:10:02.048Z,465
2017-10-12T11:11:14.640Z,360
2017-10-12T11:12:26.887Z,370
2017-10-12T11:13:39.459Z,355
2017-10-12T11:14:51.717Z,410
2017-10-12T11:16:04.289Z,275
2017-10-12T11:17:16.219Z,335
2017-10-12T11:18:28.156Z,265
2017-10-12T11:19:40.711Z,265
2017-10-12T11:20:52.956Z,315
2017-10-12T11:22:05.203Z,305
2017-10-12T11:23:17.127Z,475
2017-10-12T11:24:29.371Z,485
2017-10-12T11:25:41.304Z,370
2017-10-12T11:26:53.554Z,295
2017-10-12T11:28:05.481Z,470
2017-10-12T11:29:17.726Z,415
2017-10-12T11:30:29.346Z,435
2017-10-12T11:31:41.917Z,445
2017-10-12T11:32:54.167Z,335
2017-10-12T11:34:06.424Z,255
2017-10-12T11:35:18.377Z,340
2017-10-12T11:36:30.940Z,400
2017-10-12T11:37:42.546Z,335
2017-10-12T11:38:55.138Z,285
2017-10-12T11:40:07.101Z,340
2017-10-12T11:41:19.672Z,410
2017-10-12T11:42:32.225Z,535
2017-10-12T11:43:44.814Z,525
2017-10-12T11:44:57.061Z,445
2017-10-12T11:46:09.340Z,365
2017-10-12T11:47:21.260Z,290
2017-10-12T11:48:33.508Z,315
2017-10-12T11:49:46.091Z,375
2017-10-12T11:50:58.344Z,515
2017-10-12T11:52:10.591Z,390
2017-10-12T11:53:23.164Z,310
2017-10-12T11:54:35.414Z,290
2017-10-12T11:55:47.327Z,275
2017-10-12T11:56:59.591Z,275
2017-10-12T11:58:11.847Z,250
2017-10-12T11:59:24.415Z,260
2017-10-12T12:00:37.003Z,270
2017-10-12T12:01:49.556Z,275
2017-10-12T12:03:01.494Z,325
2017-10-12T12:04:14.051Z,475
2017-10-12T12:05:25.972Z,495
2017-10-12T12:06:38.231Z,435
2017-10-12T12:07:50.813Z,420
2017-10-12T12:09:03.090Z,365
2017-10-12T12:10:15.000Z,375
2017-10-12T12:11:27.246Z,380
2017-10-12T12:12:39.510Z,360
2017-10-12T12:13:51.786Z,385
2017-10-12T12:15:04.034Z,550
2017-10-12T12:16:16.606Z,420
2017-10-12T12:17:28.851Z,620
2017-10-12T12:18:40.776Z,605
2017-10-12T12:19:52.383Z,465
2017-10-12T12:21:04.938Z,350
2017-10-12T12:22:17.535Z,305
2017-10-12T12:23:29.783Z,325
2017-10-12T12:24:42.351Z,370
2017-10-12T12:25:54.922Z,415
2017-10-12T12:27:06.841Z,470
2017-10-12T12:28:19.411Z,470
2017-10-12T12:29:30.732Z,490
2017-10-12T12:30:43.305Z,475
2017-10-12T12:31:55.565Z,465
2017-10-12T12:33:07.493Z,505
2017-10-12T12:34:19.740Z,540
2017-10-12T12:35:32.002Z,520
2017-10-12T12:36:44.582Z,515
2017-10-12T12:37:57.161Z,470
2017-10-12T12:39:09.739Z,480
2017-10-12T12:40:22.270Z,450
2017-10-12T12:41:34.842Z,490
2017-10-12T12:42:47.426Z,480
2017-10-12T12:43:59.684Z,490
2017-10-12T12:45:12.253Z,430
2017-10-12T12:46:24.213Z,470
2017-10-12T12:47:36.440Z,430
2017-10-12T12:48:49.026Z,310
2017-10-12T12:50:01.282Z,305
2017-10-12T12:51:13.553Z,295
2017-10-12T12:52:25.815Z,360
2017-10-12T12:53:38.420Z,300
2017-10-12T12:54:50.667Z,305
2017-10-12T12:56:02.928Z,305
2017-10-12T12:57:14.874Z,340
2017-10-12T12:58:27.444Z,375
2017-10-12T12:59:39.998Z,425
2017-10-12T13:00:52.273Z,455
2017-10-12T13:02:04.516Z,440
2017-10-12T13:03:16.451Z,425
2017-10-12T13:04:29.033Z,395
2017-10-12T13:05:41.326Z,360
2017-10-12T13:06:52.963Z,360
2017-10-12T13:08:05.209Z,365
2017-10-12T13:09:17.763Z,350
2017-10-12T13:10:30.009Z,370
2017-10-12T13:11:42.279Z,370
2017-10-12T13:12:54.852Z,350
2017-10-12T13:14:07.119Z,345
2017-10-12T13:15:19.366Z,340
2017-10-12T13:16:31.959Z,380
2017-10-12T13:17:44.524Z,355
2017-10-12T13:18:56.796Z,330
2017-10-12T13:20:09.365Z,325
2017-10-12T13:21:21.311Z,305
2017-10-12T13:22:33.557Z,300
2017-10-12T13:23:46.113Z,290
2017-10-12T13:24:58.683Z,290
2017-10-12T13:26:10.926Z,285
2017-10-12T13:27:23.173Z,290
2017-10-12T13:28:35.119Z,310
2017-10-12T13:29:47.380Z,330
2017-10-12T13:30:59.635Z,295
2017-10-12T13:32:12.231Z,280
2017-10-12T13:33:24.805Z,290
2017-10-12T13:34:37.377Z,300
2017-10-12T13:35:49.959Z,300
2017-10-12T13:37:02.529Z,310
2017-10-12T13:38:14.786Z,325
2017-10-12T13:39:27.046Z,315
2017-10-12T13:40:38.978Z,295
2017-10-12T13:41:51.221Z,290
2017-10-12T13:43:03.467Z,310
2017-10-12T13:44:15.731Z,370
2017-10-12T13:45:27.657Z,425
2017-10-12T13:46:39.277Z,345
2017-10-12T13:47:51.848Z,295
2017-10-12T13:49:04.097Z,285
2017-10-12T13:50:16.346Z,275
2017-10-12T13:51:28.585Z,235
2017-10-12T13:52:40.832Z,225
2017-10-12T13:53:53.402Z,230
2017-10-12T13:55:05.979Z,250
2017-10-12T13:56:18.245Z,225
2017-10-12T13:57:30.819Z,290
2017-10-12T13:58:43.408Z,315
2017-10-12T13:59:55.979Z,345
2017-10-12T14:01:08.557Z,315
2017-10-12T14:02:20.799Z,265
2017-10-12T14:03:33.373Z,210
2017-10-12T14:04:45.613Z,190
2017-10-12T14:05:57.876Z,170
2017-10-12T14:07:10.446Z,150
2017-10-12T14:08:23.042Z,245
2017-10-12T14:09:35.288Z,235
2017-10-12T14:10:47.540Z,265
2017-10-12T14:11:59.790Z,235
2017-10-12T14:13:11.428Z,200
2017-10-12T14:14:23.656Z,215
2017-10-12T14:15:36.233Z,240
2017-10-12T14:16:48.512Z,235
2017-10-12T14:18:00.993Z,320
2017-10-12T14:19:13.259Z,355
2017-10-12T14:20:25.833Z,290
2017-10-12T14:21:38.402Z,240
2017-10-12T14:22:50.648Z,190
2017-10-12T14:24:02.910Z,175
2017-10-12T14:25:15.166Z,200
2017-10-12T14:26:27.735Z,160
2017-10-12T14:27:40.308Z,155
2017-10-12T14:28:52.554Z,155
2017-10-12T14:30:05.130Z,150
2017-10-12T14:31:17.069Z,140
2017-10-12T14:32:29.637Z,125
2017-10-12T14:33:41.569Z,120
2017-10-12T14:34:53.184Z,120
2017-10-12T14:36:05.120Z,115
2017-10-12T14:37:17.742Z,115
2017-10-12T14:38:30.317Z,120
2017-10-12T14:39:42.570Z,135
2017-10-12T14:40:54.811Z,125
2017-10-12T14:42:07.397Z,135
2017-10-12T14:43:19.666Z,185
2017-10-12T14:44:32.221Z,180
2017-10-12T14:45:44.470Z,130
2017-10-12T14:46:56.428Z,120
2017-10-12T14:48:08.686Z,125
2017-10-12T14:49:20.627Z,115
2017-10-12T14:50:33.198Z,110
2017-10-12T14:51:45.773Z,110
2017-10-12T14:52:58.017Z,125
2017-10-12T14:54:09.953Z,140
2017-10-12T14:55:21.579Z,110
2017-10-12T14:56:34.152Z,110
2017-10-12T14:57:46.089Z,110
2017-10-12T14:58:58.643Z,155
2017-10-12T15:00:11.219Z,150
2017-10-12T15:01:23.833Z,160
2017-10-12T15:02:36.096Z,145
2017-10-12T15:03:48.343Z,130
2017-10-12T15:05:00.913Z,110
2017-10-12T15:06:13.489Z,115
2017-10-12T15:07:26.054Z,125
2017-10-12T15:08:38.311Z,140
2017-10-12T15:09:50.578Z,120
2017-10-12T15:11:02.841Z,95
2017-10-12T15:12:15.095Z,80
2017-10-12T15:13:27.044Z,80
2017-10-12T15:14:39.303Z,85
2017-10-12T15:15:51.862Z,90
2017-10-12T15:17:04.428Z,85
2017-10-12T15:18:16.050Z,85
2017-10-12T15:19:28.011Z,100
2017-10-12T15:20:40.307Z,90
2017-10-12T15:21:52.535Z,95
2017-10-12T15:23:04.798Z,100
2017-10-12T15:24:17.046Z,105
2017-10-12T15:25:29.614Z,90
2017-10-12T15:26:41.847Z,95
2017-10-12T15:27:54.094Z,80
2017-10-12T15:29:06.659Z,70
2017-10-12T15:30:19.249Z,65
2017-10-12T15:31:31.478Z,60
2017-10-12T15:32:44.051Z,55
2017-10-12T15:33:56.290Z,50
2017-10-12T15:35:08.866Z,50
2017-10-12T15:36:21.432Z,50
2017-10-12T15:37:33.028Z,45
2017-10-12T15:38:45.599Z,45
2017-10-12T15:39:57.872Z,45
2017-10-12T15:41:10.445Z,45
2017-10-12T15:42:23.032Z,40
2017-10-12T15:43:35.281Z,40
2017-10-12T15:44:47.227Z,40
2017-10-12T15:45:59.165Z,40
2017-10-12T15:47:11.747Z,40
2017-10-12T15:48:24.016Z,40
2017-10-12T15:49:36.608Z,40
2017-10-12T15:50:48.229Z,40
2017-10-12T15:52:00.476Z,40
2017-10-12T15:53:13.063Z,40
2017-10-12T15:54:25.622Z,35
2017-10-12T15:55:38.192Z,35
2017-10-12T15:56:50.776Z,35
2017-10-12T15:58:03.334Z,35
2017-10-12T15:59:15.267Z,30
2017-10-12T16:00:27.837Z,30
2017-10-12T16:01:40.067Z,30
2017-10-12T16:02:52.317Z,25
2017-10-12T16:04:04.901Z,20
2017-10-12T16:05:17.470Z,20
2017-10-12T16:06:29.398Z,15
2017-10-12T16:07:41.645Z,15
2017-10-12T16:08:54.220Z,15
2017-10-12T16:10:06.478Z,10
2017-10-12T16:11:18.731Z,10
2017-10-12T16:12:30.975Z,10
2017-10-12T16:13:43.222Z,10
2017-10-12T16:14:54.835Z,10
2017-10-12T16:16:06.763Z,5
2017-10-12T16:18:31.630Z,5
2017-10-12T16:19:43.875Z,5
2017-10-12T16:20:56.445Z,5
2017-10-12T16:22:08.384Z,5
2017-10-12T16:23:20.941Z,0
2017-10-12T16:24:32.882Z,0
2017-10-12T16:25:45.458Z,0
2017-10-12T16:26:58.029Z,0
2017-10-12T16:28:10.612Z,0
2017-10-12T16:29:22.857Z,0
2017-10-12T16:30:34.465Z,0
2017-10-12T16:31:46.715Z,0
2017-10-12T16:33:28.305Z,0
2017-10-12T16:34:40.239Z,0
2017-10-12T16:35:52.176Z,0
2017-10-12T16:37:04.415Z,0
2017-10-12T16:38:16.686Z,0
2017-10-12T16:39:29.306Z,0
2017-10-12T16:40:41.583Z,0
2017-10-12T16:41:53.199Z,0
2017-10-12T16:43:05.136Z,0
2017-10-12T16:44:17.698Z,0
2017-10-12T16:45:29.942Z,0
2017-10-12T16:46:42.198Z,0
2017-10-12T16:47:54.444Z,0
2017-10-12T16:49:07.022Z,0
2017-10-12T16:52:01.540Z,0
2017-10-12T16:53:14.133Z,0
2017-10-12T16:54:26.392Z,0
2017-10-12T16:55:38.649Z,0
2017-10-12T16:56:51.218Z,0
2017-10-12T16:58:03.494Z,0
2017-10-12T16:59:15.734Z,0
2017-10-12T17:01:39.901Z,0
2017-10-12T17:02:52.165Z,0
2017-10-12T17:04:04.393Z,0
2017-10-12T17:05:16.962Z,0
2017-10-12T17:06:29.534Z,0
2017-10-12T17:07:42.105Z,0
2017-10-12T17:08:54.366Z,0
2017-10-12T17:10:06.921Z,0
2017-10-12T17:11:19.530Z,0
2017-10-12T17:12:31.780Z,0